DAL2059 KMSP-KBIS
Flight info
| Callsign | DAL2059 |
|---|---|
| Flight time | 1h 5m |
| Altitude | 32000 |
| Route | N0426F320 KBREW1 FAR DCT BIS DCT |
| Aircraft | A320/M-SDE3FGHIRWY/LB1 |
Departure
| Time | 2026-04-15 03:12 |
|---|---|
| Airport | Minneapolis–Saint Paul International Airport / Wold–Chamberlain Field (KMSP) |
Arrival
| Time | 2026-04-15 04:17 |
|---|---|
| Airport | Bismarck Municipal Airport (KBIS) |
| Time | Latitude | Longitude | Altitude | Speed | Heading |
|---|---|---|---|---|---|
| 2026-04-15 02:35 | 44.88467 | -93.20880 | 855 ft | 0 kts | 210° |
| 2026-04-15 03:00 | 44.88468 | -93.20879 | 855 ft | 1 kts | 210° |
| 2026-04-15 03:01 | 44.88479 | -93.20869 | 855 ft | 2 kts | 210° |
| 2026-04-15 03:01 | 44.88496 | -93.20858 | 855 ft | 3 kts | 195° |
| 2026-04-15 03:01 | 44.88516 | -93.20855 | 855 ft | 3 kts | 176° |
| 2026-04-15 03:01 | 44.88536 | -93.20861 | 855 ft | 3 kts | 158° |
| 2026-04-15 03:02 | 44.88554 | -93.20875 | 855 ft | 3 kts | 142° |
| 2026-04-15 03:02 | 44.88569 | -93.20896 | 855 ft | 3 kts | 128° |
| 2026-04-15 03:02 | 44.88580 | -93.20920 | 855 ft | 3 kts | 120° |
| 2026-04-15 03:02 | 44.88585 | -93.20932 | 855 ft | 0 kts | 120° |
| 2026-04-15 03:04 | 44.88584 | -93.20928 | 855 ft | 1 kts | 119° |
| 2026-04-15 03:04 | 44.88578 | -93.20913 | 855 ft | 3 kts | 112° |
| 2026-04-15 03:04 | 44.88567 | -93.20871 | 855 ft | 6 kts | 112° |
| 2026-04-15 03:05 | 44.88538 | -93.20811 | 855 ft | 9 kts | 130° |
| 2026-04-15 03:05 | 44.88499 | -93.20727 | 855 ft | 12 kts | 122° |
| 2026-04-15 03:05 | 44.88452 | -93.20617 | 855 ft | 14 kts | 119° |
| 2026-04-15 03:05 | 44.88398 | -93.20486 | 855 ft | 16 kts | 121° |
| 2026-04-15 03:06 | 44.88345 | -93.20358 | 855 ft | 15 kts | 118° |
| 2026-04-15 03:06 | 44.88297 | -93.20235 | 855 ft | 14 kts | 120° |
| 2026-04-15 03:06 | 44.88250 | -93.20119 | 855 ft | 13 kts | 118° |
| 2026-04-15 03:06 | 44.88206 | -93.20006 | 855 ft | 13 kts | 121° |
| 2026-04-15 03:07 | 44.88159 | -93.19898 | 855 ft | 13 kts | 121° |
| 2026-04-15 03:07 | 44.88116 | -93.19800 | 855 ft | 12 kts | 122° |
| 2026-04-15 03:07 | 44.88079 | -93.19711 | 855 ft | 7 kts | 118° |
| 2026-04-15 03:07 | 44.88079 | -93.19650 | 855 ft | 7 kts | 52° |
| 2026-04-15 03:08 | 44.88080 | -93.19595 | 855 ft | 6 kts | 120° |
| 2026-04-15 03:08 | 44.88060 | -93.19548 | 855 ft | 5 kts | 121° |
| 2026-04-15 03:08 | 44.88045 | -93.19504 | 855 ft | 5 kts | 95° |
| 2026-04-15 03:08 | 44.88061 | -93.19471 | 855 ft | 4 kts | 31° |
| 2026-04-15 03:09 | 44.88063 | -93.19470 | 855 ft | 0 kts | 32° |
| 2026-04-15 03:10 | 44.88081 | -93.19454 | 855 ft | 6 kts | 31° |
| 2026-04-15 03:10 | 44.88119 | -93.19424 | 855 ft | 6 kts | 17° |
| 2026-04-15 03:10 | 44.88149 | -93.19452 | 855 ft | 5 kts | 305° |
| 2026-04-15 03:11 | 44.88168 | -93.19497 | 855 ft | 6 kts | 302° |
| 2026-04-15 03:11 | 44.88278 | -93.19749 | 855 ft | 68 kts | 301° |
| 2026-04-15 03:11 | 44.88656 | -93.20622 | 856 ft | 138 kts | 301° |
| 2026-04-15 03:11 | 44.89230 | -93.21957 | 1078 ft | 167 kts | 302° |
| 2026-04-15 03:12 | 44.89832 | -93.23377 | 1755 ft | 171 kts | 302° |
| 2026-04-15 03:12 | 44.90448 | -93.24848 | 2334 ft | 181 kts | 302° |
| 2026-04-15 03:12 | 44.91113 | -93.26447 | 2701 ft | 197 kts | 302° |
| 2026-04-15 03:12 | 44.91820 | -93.28142 | 3057 ft | 214 kts | 302° |
| 2026-04-15 03:13 | 44.92643 | -93.30056 | 3475 ft | 233 kts | 306° |
| 2026-04-15 03:13 | 44.93832 | -93.31646 | 3965 ft | 246 kts | 330° |
| 2026-04-15 03:13 | 44.95465 | -93.32548 | 4553 ft | 258 kts | 345° |
| 2026-04-15 03:13 | 44.97232 | -93.33089 | 5339 ft | 262 kts | 349° |
| 2026-04-15 03:14 | 44.99042 | -93.33514 | 6180 ft | 264 kts | 349° |
| 2026-04-15 03:14 | 45.00940 | -93.33932 | 7018 ft | 268 kts | 348° |
| 2026-04-15 03:14 | 45.02798 | -93.34375 | 7754 ft | 273 kts | 347° |
| 2026-04-15 03:14 | 45.04685 | -93.34856 | 8457 ft | 279 kts | 347° |
| 2026-04-15 03:15 | 45.05980 | -93.35188 | 8919 ft | 283 kts | 347° |
| 2026-04-15 03:15 | 45.08581 | -93.35840 | 9808 ft | 291 kts | 347° |
| 2026-04-15 03:15 | 45.09912 | -93.36167 | 10244 ft | 295 kts | 347° |
| 2026-04-15 03:15 | 45.11969 | -93.36692 | 10747 ft | 307 kts | 345° |
| 2026-04-15 03:16 | 45.13999 | -93.37744 | 11128 ft | 317 kts | 327° |
| 2026-04-15 03:16 | 45.15690 | -93.39793 | 11494 ft | 325 kts | 305° |
| 2026-04-15 03:16 | 45.16880 | -93.42566 | 11899 ft | 335 kts | 295° |
| 2026-04-15 03:16 | 45.17949 | -93.45578 | 12278 ft | 348 kts | 293° |
| 2026-04-15 03:17 | 45.19033 | -93.48672 | 12897 ft | 352 kts | 293° |
| 2026-04-15 03:17 | 45.20172 | -93.51757 | 13610 ft | 353 kts | 294° |
| 2026-04-15 03:17 | 45.21363 | -93.54812 | 14322 ft | 354 kts | 295° |
| 2026-04-15 03:17 | 45.22577 | -93.57851 | 14994 ft | 355 kts | 295° |
| 2026-04-15 03:18 | 45.23794 | -93.60912 | 15626 ft | 356 kts | 294° |
| 2026-04-15 03:18 | 45.24998 | -93.63990 | 16242 ft | 358 kts | 293° |
| 2026-04-15 03:18 | 45.26197 | -93.67096 | 16823 ft | 360 kts | 293° |
| 2026-04-15 03:18 | 45.27403 | -93.70231 | 17369 ft | 362 kts | 293° |
| 2026-04-15 03:19 | 45.28615 | -93.73373 | 17892 ft | 365 kts | 293° |
| 2026-04-15 03:19 | 45.29846 | -93.76551 | 18401 ft | 368 kts | 293° |
| 2026-04-15 03:19 | 45.31069 | -93.79708 | 18904 ft | 370 kts | 293° |
| 2026-04-15 03:19 | 45.32313 | -93.82922 | 19387 ft | 373 kts | 293° |
| 2026-04-15 03:20 | 45.33565 | -93.86169 | 19858 ft | 375 kts | 293° |
| 2026-04-15 03:20 | 45.34822 | -93.89438 | 20316 ft | 378 kts | 293° |
| 2026-04-15 03:20 | 45.36086 | -93.92727 | 20767 ft | 380 kts | 293° |
| 2026-04-15 03:20 | 45.37359 | -93.96042 | 21200 ft | 383 kts | 294° |
| 2026-04-15 03:21 | 45.38641 | -93.99380 | 21653 ft | 385 kts | 294° |
| 2026-04-15 03:21 | 45.41223 | -94.06118 | 22437 ft | 390 kts | 294° |
| 2026-04-15 03:21 | 45.42527 | -94.09530 | 22856 ft | 392 kts | 294° |
| 2026-04-15 03:22 | 45.43818 | -94.12911 | 23239 ft | 394 kts | 294° |
| 2026-04-15 03:22 | 45.45133 | -94.16357 | 23613 ft | 397 kts | 294° |
| 2026-04-15 03:22 | 45.46451 | -94.19816 | 23980 ft | 399 kts | 294° |
| 2026-04-15 03:22 | 45.47776 | -94.23296 | 24325 ft | 401 kts | 294° |
| 2026-04-15 03:23 | 45.49110 | -94.26807 | 24670 ft | 403 kts | 294° |
| 2026-04-15 03:23 | 45.50447 | -94.30334 | 25016 ft | 405 kts | 294° |
| 2026-04-15 03:23 | 45.51790 | -94.33879 | 25354 ft | 407 kts | 294° |
| 2026-04-15 03:23 | 45.53139 | -94.37443 | 25696 ft | 408 kts | 294° |
| 2026-04-15 03:24 | 45.54492 | -94.41018 | 26029 ft | 410 kts | 293° |
| 2026-04-15 03:24 | 45.55842 | -94.44594 | 26371 ft | 411 kts | 293° |
| 2026-04-15 03:24 | 45.57195 | -94.48184 | 26713 ft | 411 kts | 292° |
| 2026-04-15 03:24 | 45.58608 | -94.51750 | 27039 ft | 416 kts | 297° |
| 2026-04-15 03:25 | 45.60277 | -94.55156 | 27376 ft | 418 kts | 300° |
| 2026-04-15 03:25 | 45.61995 | -94.58444 | 27818 ft | 416 kts | 301° |
| 2026-04-15 03:25 | 45.63755 | -94.61730 | 28253 ft | 414 kts | 301° |
| 2026-04-15 03:25 | 45.65494 | -94.64997 | 28667 ft | 412 kts | 300° |
| 2026-04-15 03:26 | 45.67202 | -94.68271 | 29072 ft | 409 kts | 299° |
| 2026-04-15 03:26 | 45.68884 | -94.71544 | 29470 ft | 407 kts | 298° |
| 2026-04-15 03:26 | 45.70555 | -94.74812 | 29817 ft | 406 kts | 298° |
| 2026-04-15 03:26 | 45.72226 | -94.78061 | 30209 ft | 404 kts | 298° |
| 2026-04-15 03:27 | 45.73900 | -94.81298 | 30594 ft | 402 kts | 298° |
| 2026-04-15 03:27 | 45.75559 | -94.84503 | 30969 ft | 400 kts | 298° |
| 2026-04-15 03:27 | 45.77235 | -94.87756 | 31253 ft | 401 kts | 298° |
| 2026-04-15 03:27 | 45.78889 | -94.90978 | 31500 ft | 401 kts | 298° |
| 2026-04-15 03:28 | 45.80542 | -94.94197 | 31821 ft | 400 kts | 297° |
| 2026-04-15 03:28 | 45.82176 | -94.97383 | 31862 ft | 403 kts | 298° |
| 2026-04-15 03:28 | 45.85502 | -95.03875 | 31856 ft | 404 kts | 298° |
| 2026-04-15 03:29 | 45.88826 | -95.10377 | 31855 ft | 405 kts | 298° |
| 2026-04-15 03:29 | 45.92170 | -95.16935 | 31855 ft | 406 kts | 298° |
| 2026-04-15 03:30 | 45.95511 | -95.23497 | 31857 ft | 408 kts | 298° |
| 2026-04-15 03:30 | 45.98860 | -95.30096 | 31866 ft | 408 kts | 299° |
| 2026-04-15 03:31 | 46.02184 | -95.36657 | 31890 ft | 408 kts | 298° |
| 2026-04-15 03:31 | 46.05533 | -95.43283 | 31889 ft | 408 kts | 298° |
| 2026-04-15 03:32 | 46.08871 | -95.49907 | 31893 ft | 408 kts | 298° |
| 2026-04-15 03:32 | 46.12200 | -95.56522 | 31895 ft | 407 kts | 298° |
| 2026-04-15 03:33 | 46.15519 | -95.63141 | 31861 ft | 407 kts | 298° |
| 2026-04-15 03:33 | 46.18808 | -95.69716 | 31818 ft | 407 kts | 298° |
| 2026-04-15 03:34 | 46.22121 | -95.76347 | 31836 ft | 410 kts | 299° |
| 2026-04-15 03:34 | 46.25475 | -95.83089 | 31864 ft | 416 kts | 299° |
| 2026-04-15 03:35 | 46.28865 | -95.89909 | 31874 ft | 418 kts | 298° |
| 2026-04-15 03:35 | 46.32272 | -95.96777 | 31879 ft | 420 kts | 298° |
| 2026-04-15 03:36 | 46.35654 | -96.03613 | 31881 ft | 420 kts | 298° |
| 2026-04-15 03:36 | 46.39047 | -96.10493 | 31883 ft | 420 kts | 298° |
| 2026-04-15 03:37 | 46.42444 | -96.17394 | 31878 ft | 420 kts | 298° |
| 2026-04-15 03:37 | 46.45828 | -96.24288 | 31873 ft | 420 kts | 298° |
| 2026-04-15 03:38 | 46.49211 | -96.31201 | 31871 ft | 420 kts | 298° |
| 2026-04-15 03:38 | 46.52593 | -96.38123 | 31874 ft | 420 kts | 298° |
| 2026-04-15 03:39 | 46.55947 | -96.45002 | 31879 ft | 420 kts | 298° |
| 2026-04-15 03:39 | 46.59318 | -96.51938 | 31887 ft | 420 kts | 298° |
| 2026-04-15 03:40 | 46.62681 | -96.58880 | 31912 ft | 419 kts | 298° |
| 2026-04-15 03:40 | 46.66040 | -96.65818 | 31918 ft | 418 kts | 298° |
| 2026-04-15 03:41 | 46.69382 | -96.72745 | 31922 ft | 418 kts | 298° |
| 2026-04-15 03:41 | 46.72719 | -96.79685 | 31906 ft | 417 kts | 298° |
| 2026-04-15 03:42 | 46.75256 | -96.87095 | 31846 ft | 402 kts | 278° |
| 2026-04-15 03:42 | 46.75647 | -96.95093 | 31831 ft | 394 kts | 265° |
| 2026-04-15 03:43 | 46.75625 | -97.03113 | 31832 ft | 396 kts | 266° |
| 2026-04-15 03:43 | 46.75763 | -97.11171 | 31834 ft | 399 kts | 268° |
| 2026-04-15 03:44 | 46.75936 | -97.19227 | 31834 ft | 401 kts | 267° |
| 2026-04-15 03:44 | 46.76053 | -97.27374 | 31856 ft | 401 kts | 267° |
| 2026-04-15 03:45 | 46.76166 | -97.35510 | 31913 ft | 401 kts | 267° |
| 2026-04-15 03:45 | 46.76283 | -97.43655 | 31921 ft | 401 kts | 267° |
| 2026-04-15 03:46 | 46.76393 | -97.51786 | 31918 ft | 400 kts | 268° |
| 2026-04-15 03:46 | 46.76496 | -97.59890 | 31874 ft | 399 kts | 268° |
| 2026-04-15 03:47 | 46.76592 | -97.67969 | 31830 ft | 398 kts | 268° |
| 2026-04-15 03:47 | 46.76684 | -97.75988 | 31798 ft | 397 kts | 268° |
| 2026-04-15 03:48 | 46.76767 | -97.84060 | 31800 ft | 398 kts | 268° |
| 2026-04-15 03:48 | 46.76846 | -97.92154 | 31801 ft | 399 kts | 268° |
| 2026-04-15 03:49 | 46.76921 | -98.00267 | 31799 ft | 401 kts | 268° |
| 2026-04-15 03:49 | 46.76991 | -98.08415 | 31805 ft | 402 kts | 268° |
| 2026-04-15 03:50 | 46.77055 | -98.16580 | 31857 ft | 402 kts | 268° |
| 2026-04-15 03:50 | 46.77111 | -98.24693 | 31888 ft | 402 kts | 268° |
| 2026-04-15 03:51 | 46.77161 | -98.32852 | 31890 ft | 402 kts | 268° |
| 2026-04-15 03:51 | 46.77208 | -98.41010 | 31891 ft | 401 kts | 268° |
| 2026-04-15 03:52 | 46.77247 | -98.49142 | 31876 ft | 401 kts | 268° |
| 2026-04-15 03:52 | 46.77282 | -98.57279 | 31872 ft | 401 kts | 268° |
| 2026-04-15 03:53 | 46.77309 | -98.65401 | 31852 ft | 400 kts | 268° |
| 2026-04-15 03:53 | 46.77332 | -98.73528 | 31832 ft | 400 kts | 268° |
| 2026-04-15 03:54 | 46.77341 | -98.77581 | 31707 ft | 398 kts | 268° |
| 2026-04-15 03:54 | 46.77350 | -98.81580 | 31376 ft | 391 kts | 268° |
| 2026-04-15 03:54 | 46.77356 | -98.85524 | 30841 ft | 387 kts | 268° |
| 2026-04-15 03:55 | 46.77364 | -98.93250 | 29840 ft | 379 kts | 268° |
| 2026-04-15 03:55 | 46.77365 | -98.97077 | 29324 ft | 375 kts | 268° |
| 2026-04-15 03:55 | 46.77366 | -99.00854 | 28841 ft | 370 kts | 268° |
| 2026-04-15 03:55 | 46.77366 | -99.04582 | 28366 ft | 366 kts | 268° |
| 2026-04-15 03:56 | 46.77364 | -99.08284 | 27896 ft | 362 kts | 268° |
| 2026-04-15 03:56 | 46.77361 | -99.11931 | 27451 ft | 357 kts | 268° |
| 2026-04-15 03:56 | 46.77356 | -99.15527 | 26996 ft | 352 kts | 268° |
| 2026-04-15 03:56 | 46.77351 | -99.19081 | 26528 ft | 349 kts | 268° |
| 2026-04-15 03:57 | 46.77345 | -99.22606 | 26065 ft | 345 kts | 268° |
| 2026-04-15 03:57 | 46.77338 | -99.26094 | 25631 ft | 340 kts | 268° |
| 2026-04-15 03:57 | 46.77330 | -99.29534 | 25209 ft | 338 kts | 268° |
| 2026-04-15 03:57 | 46.77321 | -99.32954 | 24784 ft | 336 kts | 268° |
| 2026-04-15 03:58 | 46.77311 | -99.36351 | 24338 ft | 335 kts | 268° |
| 2026-04-15 03:58 | 46.77301 | -99.39698 | 23922 ft | 333 kts | 268° |
| 2026-04-15 03:58 | 46.77289 | -99.43063 | 23510 ft | 331 kts | 268° |
| 2026-04-15 03:58 | 46.77276 | -99.46409 | 23099 ft | 329 kts | 268° |
| 2026-04-15 03:59 | 46.77263 | -99.49745 | 22690 ft | 328 kts | 268° |
| 2026-04-15 03:59 | 46.77250 | -99.53058 | 22303 ft | 326 kts | 268° |
| 2026-04-15 03:59 | 46.77234 | -99.56358 | 21916 ft | 324 kts | 267° |
| 2026-04-15 03:59 | 46.77217 | -99.59647 | 21530 ft | 322 kts | 267° |
| 2026-04-15 04:00 | 46.77205 | -99.61807 | 21277 ft | 321 kts | 268° |
| 2026-04-15 04:00 | 46.77188 | -99.65064 | 20898 ft | 320 kts | 268° |
| 2026-04-15 04:00 | 46.77163 | -99.69391 | 20417 ft | 318 kts | 268° |
| 2026-04-15 04:00 | 46.77150 | -99.71528 | 20181 ft | 317 kts | 268° |
| 2026-04-15 04:01 | 46.77129 | -99.74742 | 19823 ft | 315 kts | 268° |
| 2026-04-15 04:01 | 46.77108 | -99.77940 | 19463 ft | 321 kts | 268° |
| 2026-04-15 04:01 | 46.77082 | -99.81334 | 19096 ft | 343 kts | 268° |
| 2026-04-15 04:01 | 46.77056 | -99.84859 | 18688 ft | 350 kts | 268° |
| 2026-04-15 04:02 | 46.77031 | -99.88425 | 18292 ft | 354 kts | 268° |
| 2026-04-15 04:02 | 46.77005 | -99.92019 | 17904 ft | 355 kts | 268° |
| 2026-04-15 04:02 | 46.76976 | -99.95632 | 17522 ft | 354 kts | 269° |
| 2026-04-15 04:02 | 46.76946 | -99.99221 | 17221 ft | 354 kts | 268° |
| 2026-04-15 04:03 | 46.76914 | -100.02793 | 16883 ft | 352 kts | 269° |
| 2026-04-15 04:03 | 46.76882 | -100.06303 | 16555 ft | 350 kts | 269° |
| 2026-04-15 04:03 | 46.76851 | -100.09846 | 16219 ft | 348 kts | 269° |
| 2026-04-15 04:03 | 46.76819 | -100.13359 | 15885 ft | 345 kts | 269° |
| 2026-04-15 04:04 | 46.76784 | -100.16858 | 15543 ft | 344 kts | 269° |
| 2026-04-15 04:04 | 46.76748 | -100.20331 | 15199 ft | 341 kts | 269° |
| 2026-04-15 04:04 | 46.76710 | -100.23779 | 14835 ft | 339 kts | 269° |
| 2026-04-15 04:04 | 46.76672 | -100.27213 | 14451 ft | 336 kts | 269° |
| 2026-04-15 04:05 | 46.76635 | -100.30605 | 14067 ft | 333 kts | 269° |
| 2026-04-15 04:05 | 46.76596 | -100.33984 | 13690 ft | 331 kts | 269° |
| 2026-04-15 04:05 | 46.76558 | -100.37330 | 13328 ft | 329 kts | 269° |
| 2026-04-15 04:05 | 46.76519 | -100.40614 | 12966 ft | 327 kts | 269° |
| 2026-04-15 04:06 | 46.76478 | -100.43923 | 12610 ft | 327 kts | 269° |
| 2026-04-15 04:06 | 46.76436 | -100.47239 | 12252 ft | 325 kts | 269° |
| 2026-04-15 04:06 | 46.76394 | -100.50535 | 11855 ft | 324 kts | 269° |
| 2026-04-15 04:06 | 46.76351 | -100.53827 | 11460 ft | 323 kts | 269° |
| 2026-04-15 04:07 | 46.76306 | -100.57149 | 11061 ft | 322 kts | 269° |
| 2026-04-15 04:07 | 46.76261 | -100.60357 | 10764 ft | 317 kts | 269° |
| 2026-04-15 04:07 | 46.76216 | -100.63543 | 10601 ft | 305 kts | 269° |
| 2026-04-15 04:07 | 46.76267 | -100.66568 | 10187 ft | 303 kts | 277° |
| 2026-04-15 04:08 | 46.76801 | -100.69546 | 9753 ft | 302 kts | 288° |
| 2026-04-15 04:08 | 46.77529 | -100.72404 | 9589 ft | 291 kts | 290° |
| 2026-04-15 04:08 | 46.78267 | -100.75114 | 9251 ft | 287 kts | 291° |
| 2026-04-15 04:08 | 46.78997 | -100.77831 | 8809 ft | 287 kts | 290° |
| 2026-04-15 04:09 | 46.79680 | -100.80516 | 8631 ft | 276 kts | 289° |
| 2026-04-15 04:09 | 46.80310 | -100.83092 | 8524 ft | 263 kts | 289° |
| 2026-04-15 04:09 | 46.80908 | -100.85555 | 8422 ft | 250 kts | 289° |
| 2026-04-15 04:09 | 46.81484 | -100.87886 | 8293 ft | 239 kts | 289° |
| 2026-04-15 04:10 | 46.82051 | -100.90152 | 8004 ft | 236 kts | 289° |
| 2026-04-15 04:10 | 46.82642 | -100.92346 | 7650 ft | 235 kts | 294° |
| 2026-04-15 04:10 | 46.83459 | -100.94412 | 7275 ft | 234 kts | 306° |
| 2026-04-15 04:10 | 46.84415 | -100.96324 | 6868 ft | 233 kts | 298° |
| 2026-04-15 04:11 | 46.85130 | -100.98448 | 6412 ft | 232 kts | 295° |
| 2026-04-15 04:11 | 46.86064 | -101.00356 | 5903 ft | 233 kts | 320° |
| 2026-04-15 04:11 | 46.87492 | -101.01442 | 5387 ft | 233 kts | 348° |
| 2026-04-15 04:11 | 46.89120 | -101.01430 | 4891 ft | 231 kts | 17° |
| 2026-04-15 04:12 | 46.90506 | -101.00347 | 4475 ft | 223 kts | 45° |
| 2026-04-15 04:12 | 46.91315 | -100.98531 | 4234 ft | 208 kts | 74° |
| 2026-04-15 04:12 | 46.91446 | -100.96496 | 4004 ft | 199 kts | 94° |
| 2026-04-15 04:12 | 46.91066 | -100.94556 | 3986 ft | 200 kts | 116° |
| 2026-04-15 04:13 | 46.90427 | -100.92752 | 3987 ft | 200 kts | 117° |
| 2026-04-15 04:13 | 46.89615 | -100.91111 | 3979 ft | 201 kts | 134° |
| 2026-04-15 04:13 | 46.88584 | -100.89730 | 3982 ft | 201 kts | 136° |
| 2026-04-15 04:13 | 46.87549 | -100.88392 | 4007 ft | 193 kts | 137° |
| 2026-04-15 04:14 | 46.86576 | -100.87101 | 3820 ft | 186 kts | 136° |
| 2026-04-15 04:14 | 46.85652 | -100.85848 | 3592 ft | 180 kts | 136° |
| 2026-04-15 04:14 | 46.84758 | -100.84651 | 3367 ft | 168 kts | 136° |
| 2026-04-15 04:14 | 46.83924 | -100.83549 | 3180 ft | 154 kts | 136° |
| 2026-04-15 04:15 | 46.83157 | -100.82531 | 2953 ft | 144 kts | 136° |
| 2026-04-15 04:15 | 46.82427 | -100.81549 | 2766 ft | 142 kts | 136° |
| 2026-04-15 04:15 | 46.81699 | -100.80578 | 2576 ft | 142 kts | 136° |
| 2026-04-15 04:15 | 46.80969 | -100.79607 | 2388 ft | 141 kts | 136° |
| 2026-04-15 04:16 | 46.80246 | -100.78646 | 2198 ft | 140 kts | 137° |
| 2026-04-15 04:16 | 46.79527 | -100.77688 | 2012 ft | 140 kts | 136° |
| 2026-04-15 04:16 | 46.78803 | -100.76728 | 1825 ft | 140 kts | 137° |
| 2026-04-15 04:16 | 46.78090 | -100.75772 | 1677 ft | 134 kts | 136° |
| 2026-04-15 04:17 | 46.77513 | -100.75001 | 1675 ft | 88 kts | 140° |
| 2026-04-15 04:17 | 46.77192 | -100.74578 | 1675 ft | 37 kts | 134° |
| 2026-04-15 04:17 | 46.77058 | -100.74401 | 1675 ft | 20 kts | 138° |
| 2026-04-15 04:17 | 46.77005 | -100.74353 | 1675 ft | 6 kts | 190° |
| 2026-04-15 04:18 | 46.76971 | -100.74386 | 1675 ft | 6 kts | 226° |
| 2026-04-15 04:18 | 46.76944 | -100.74428 | 1675 ft | 6 kts | 226° |
| 2026-04-15 04:18 | 46.76918 | -100.74471 | 1675 ft | 6 kts | 229° |
| 2026-04-15 04:18 | 46.76892 | -100.74515 | 1675 ft | 5 kts | 229° |
| 2026-04-15 04:19 | 46.76895 | -100.74561 | 1675 ft | 7 kts | 314° |
| 2026-04-15 04:19 | 46.76941 | -100.74622 | 1675 ft | 10 kts | 318° |
| 2026-04-15 04:19 | 46.76991 | -100.74687 | 1675 ft | 10 kts | 318° |
| 2026-04-15 04:19 | 46.77041 | -100.74753 | 1675 ft | 10 kts | 318° |
| 2026-04-15 04:20 | 46.77105 | -100.74842 | 1675 ft | 16 kts | 316° |
| 2026-04-15 04:20 | 46.77196 | -100.74965 | 1675 ft | 19 kts | 318° |
| 2026-04-15 04:20 | 46.77296 | -100.75095 | 1675 ft | 19 kts | 317° |
| 2026-04-15 04:20 | 46.77385 | -100.75226 | 1675 ft | 11 kts | 313° |
| 2026-04-15 04:21 | 46.77434 | -100.75300 | 1675 ft | 10 kts | 325° |
| 2026-04-15 04:21 | 46.77484 | -100.75355 | 1675 ft | 9 kts | 316° |
| 2026-04-15 04:21 | 46.77532 | -100.75417 | 1675 ft | 11 kts | 321° |
| 2026-04-15 04:21 | 46.77589 | -100.75492 | 1675 ft | 9 kts | 313° |
| 2026-04-15 04:22 | 46.77584 | -100.75549 | 1675 ft | 4 kts | 236° |
| 2026-04-15 04:22 | 46.77564 | -100.75588 | 1675 ft | 5 kts | 234° |
| 2026-04-15 04:22 | 46.77544 | -100.75629 | 1675 ft | 4 kts | 234° |
| 2026-04-15 04:22 | 46.77531 | -100.75657 | 1675 ft | 0 kts | 234° |